NZCH/CHC METAR and TAF weather

Enter ICAO airport designator
Station Type Date Time Source
NZCH METAR 2019/08/24 22:00 UTC NOAA

NZCH 242200Z AUTO 02002KT 9999 NCD 11/07 Q1002 NOSIG


Station Type Date Time Source
NZCH Decoded METAR 2019/08/24 22:00 UTC NOAA

Station name not available
Aug 24, 2019 - 06:00 PM EDT / 2019.08.24 2200 UTC
Wind: from the NNE (020 degrees) at 2 MPH (2 KT):0
Visibility: greater than 7 mile(s):0
Temperature: 51 F (11 C)
Dew Point: 44 F (7 C)
Relative Humidity: 76%
Pressure (altimeter): 29.59 in. Hg (1002 hPa)
ob: NZCH 242200Z AUTO 02002KT 9999 NCD 11/07 Q1002 NOSIG
cycle: 22

Station Type Date Time Source
NZCH TAF 2019/08/24 18:09 UTC NOAA

TAF NZCH 241707Z 2418/2518 VRB02KT 9999 FEW060
TEMPO 2418/2420 1500 BR
BECMG 2422/2500 30012KT
BECMG 2506/2508 02005KT

Example: see airport list